createdAt,value
2023-01-29T00:01:14.753Z,0.86
2023-01-29T00:03:43.328Z,0.88
2023-01-29T00:06:18.871Z,0.83
2023-01-29T00:08:48.671Z,0.79
2023-01-29T00:11:17.761Z,0.78
2023-01-29T00:13:51.114Z,0.76
2023-01-29T00:16:19.577Z,0.71
2023-01-29T00:18:49.507Z,0.71
2023-01-29T00:21:19.744Z,0.66
2023-01-29T00:23:49.368Z,0.65
2023-01-29T00:26:18.631Z,0.66
2023-01-29T00:28:49.955Z,0.62
2023-01-29T00:31:19.103Z,0.60
2023-01-29T00:33:47.378Z,0.54
2023-01-29T00:36:16.993Z,0.53
2023-01-29T00:38:54.861Z,0.55
2023-01-29T00:41:46.826Z,0.44
2023-01-29T00:44:34.073Z,0.34
2023-01-29T00:47:05.022Z,0.36
2023-01-29T00:49:33.744Z,0.30
2023-01-29T00:52:19.181Z,0.28
2023-01-29T00:54:52.453Z,0.14
2023-01-29T00:57:23.915Z,0.07
2023-01-29T01:00:01.687Z,0.07
2023-01-29T01:02:47.415Z,0.07
2023-01-29T01:05:18.974Z,-0.08
2023-01-29T01:07:52.799Z,-0.11
2023-01-29T01:10:24.495Z,-0.13
2023-01-29T01:12:54.803Z,-0.22
2023-01-29T01:15:23.954Z,-0.32
2023-01-29T01:17:55.463Z,-0.35
2023-01-29T01:20:26.818Z,-0.36
2023-01-29T01:22:55.415Z,-0.42
2023-01-29T01:25:28.513Z,-0.45
2023-01-29T01:30:33.108Z,-0.58
2023-01-29T01:33:01.695Z,-0.56
2023-01-29T01:35:34.567Z,-0.59
2023-01-29T01:38:06.232Z,-0.70
2023-01-29T01:40:37.005Z,-0.72
2023-01-29T01:43:05.360Z,-0.76
2023-01-29T01:45:36.540Z,-0.80
2023-01-29T01:48:06.673Z,-0.79
2023-01-29T01:50:36.791Z,-0.79
2023-01-29T01:53:07.762Z,-0.83
2023-01-29T01:55:42.008Z,-0.83
2023-01-29T01:58:11.602Z,-0.80
2023-01-29T02:00:41.497Z,-0.80
2023-01-29T02:03:28.800Z,-0.80
2023-01-29T02:06:16.838Z,-0.80
2023-01-29T02:09:08.161Z,-0.86
2023-01-29T02:11:39.144Z,-0.87
2023-01-29T02:14:08.309Z,-0.96
2023-01-29T02:16:38.275Z,-0.99
2023-01-29T02:19:11.455Z,-0.93
2023-01-29T02:21:47.807Z,-0.93
2023-01-29T02:24:31.183Z,-0.99
2023-01-29T02:27:04.935Z,-1.05
2023-01-29T02:29:46.010Z,-1.03
2023-01-29T02:32:23.828Z,-1.15
2023-01-29T02:35:16.771Z,-1.20
2023-01-29T02:37:50.947Z,-1.20
2023-01-29T02:40:23.779Z,-1.32
2023-01-29T02:42:55.853Z,-1.31
2023-01-29T02:45:29.981Z,-1.28
2023-01-29T02:48:00.388Z,-1.30
2023-01-29T02:50:33.040Z,-1.37
2023-01-29T02:53:04.609Z,-1.44
2023-01-29T02:55:41.178Z,-1.45
2023-01-29T02:58:13.363Z,-1.47
2023-01-29T03:00:46.622Z,-1.58
2023-01-29T03:03:19.800Z,-1.59
2023-01-29T03:05:57.088Z,-1.52
2023-01-29T03:08:37.218Z,-1.61
2023-01-29T03:11:07.708Z,-1.56
2023-01-29T03:13:42.150Z,-1.56
2023-01-29T03:16:19.218Z,-1.65
2023-01-29T03:18:53.311Z,-1.63
2023-01-29T03:21:41.918Z,-1.51
2023-01-29T03:24:28.851Z,-1.52
2023-01-29T03:27:17.484Z,-1.55
2023-01-29T03:30:07.511Z,-1.49
2023-01-29T03:32:39.003Z,-1.48
2023-01-29T03:35:09.543Z,-1.42
2023-01-29T03:37:42.636Z,-1.35
2023-01-29T03:40:14.132Z,-1.31
2023-01-29T03:42:46.307Z,-1.25
2023-01-29T03:45:16.813Z,-1.22
2023-01-29T03:47:52.776Z,-1.11
2023-01-29T03:50:30.639Z,-1.11
2023-01-29T03:53:08.704Z,-1.11
2023-01-29T03:55:40.057Z,-1.11
2023-01-29T03:58:16.769Z,-1.13
2023-01-29T04:00:49.395Z,-1.08
2023-01-29T04:03:22.037Z,-1.01
2023-01-29T04:05:54.384Z,-0.97
2023-01-29T04:08:28.640Z,-0.99
2023-01-29T04:10:58.444Z,-0.99
2023-01-29T04:13:30.097Z,-0.92
2023-01-29T04:15:59.703Z,-0.92
2023-01-29T04:18:33.518Z,-0.86
2023-01-29T04:21:07.449Z,-0.80
2023-01-29T04:23:37.487Z,-0.86
2023-01-29T04:26:13.471Z,-0.80
2023-01-29T04:28:53.109Z,-0.86
2023-01-29T04:31:24.461Z,-0.87
2023-01-29T04:34:01.752Z,-0.80
2023-01-29T04:36:35.227Z,-0.79
2023-01-29T04:39:11.665Z,-0.79
2023-01-29T04:41:46.423Z,-0.83
2023-01-29T04:44:18.089Z,-0.79
2023-01-29T04:46:49.179Z,-0.79
2023-01-29T04:49:28.110Z,-0.76
2023-01-29T04:52:01.657Z,-0.86
2023-01-29T04:54:33.880Z,-0.80
2023-01-29T04:57:10.099Z,-0.77
2023-01-29T04:59:43.455Z,-0.82
2023-01-29T05:02:18.270Z,-0.73
2023-01-29T05:04:48.613Z,-0.83
2023-01-29T05:07:20.122Z,-0.79
2023-01-29T05:09:50.659Z,-0.68
2023-01-29T05:12:19.898Z,-0.69
2023-01-29T05:14:48.867Z,-0.69
2023-01-29T05:17:17.599Z,-0.70
2023-01-29T05:19:53.133Z,-0.70
2023-01-29T05:22:24.436Z,-0.63
2023-01-29T05:25:00.341Z,-0.63
2023-01-29T05:27:50.190Z,-0.56
2023-01-29T05:30:20.367Z,-0.53
2023-01-29T05:32:49.617Z,-0.46
2023-01-29T05:35:19.986Z,-0.48
2023-01-29T05:37:48.340Z,-0.53
2023-01-29T05:40:37.935Z,-0.59
2023-01-29T05:43:06.105Z,-0.62
2023-01-29T05:45:35.255Z,-0.61
2023-01-29T05:48:05.409Z,-0.49
2023-01-29T05:50:41.900Z,-0.45
2023-01-29T05:53:12.792Z,-0.53
2023-01-29T05:55:41.631Z,-0.58
2023-01-29T05:58:09.648Z,-0.51
2023-01-29T06:00:44.190Z,-0.56
2023-01-29T06:03:14.036Z,-0.48
2023-01-29T06:05:47.341Z,-0.46
2023-01-29T06:08:16.431Z,-0.48
2023-01-29T06:10:44.999Z,-0.53
2023-01-29T06:13:13.326Z,-0.45
2023-01-29T06:15:43.660Z,-0.49
2023-01-29T06:18:13.246Z,-0.49
2023-01-29T06:20:44.013Z,-0.51
2023-01-29T06:23:15.635Z,-0.49
2023-01-29T06:25:45.180Z,-0.45
2023-01-29T06:28:15.663Z,-0.42
2023-01-29T06:30:44.872Z,-0.39
2023-01-29T06:33:15.408Z,-0.34
2023-01-29T06:35:46.060Z,-0.35
2023-01-29T06:38:20.242Z,-0.38
2023-01-29T06:40:50.058Z,-0.44
2023-01-29T06:43:20.270Z,-0.31
2023-01-29T06:45:49.190Z,-0.34
2023-01-29T06:48:21.333Z,-0.31
2023-01-29T06:50:56.383Z,-0.28
2023-01-29T06:53:26.147Z,-0.25
2023-01-29T06:55:56.428Z,-0.18
2023-01-29T06:58:26.274Z,-0.25
2023-01-29T07:01:03.802Z,-0.24
2023-01-29T07:03:34.130Z,-0.21
2023-01-29T07:06:05.020Z,-0.22
2023-01-29T07:08:37.168Z,-0.14
2023-01-29T07:11:08.511Z,-0.10
2023-01-29T07:13:37.617Z,-0.13
2023-01-29T07:16:07.028Z,-0.13
2023-01-29T07:18:37.187Z,-0.13
2023-01-29T07:21:10.800Z,-0.08
2023-01-29T07:23:44.929Z,-0.03
2023-01-29T07:26:13.225Z,-0.05
2023-01-29T07:28:41.795Z,0.00
2023-01-29T07:31:13.017Z,0.02
2023-01-29T07:33:46.023Z,-0.03
2023-01-29T07:36:16.916Z,0.03
2023-01-29T07:38:49.843Z,0.13
2023-01-29T07:41:19.713Z,0.14
2023-01-29T07:43:48.319Z,0.17
2023-01-29T07:46:22.142Z,0.17
2023-01-29T07:48:53.919Z,0.14
2023-01-29T07:51:26.623Z,0.20
2023-01-29T07:53:56.240Z,0.26
2023-01-29T07:56:26.116Z,0.24
2023-01-29T07:58:54.468Z,0.26
2023-01-29T08:01:26.631Z,0.28
2023-01-29T08:03:55.340Z,0.33
2023-01-29T08:06:29.658Z,0.31
2023-01-29T08:09:00.179Z,0.34
2023-01-29T08:11:29.096Z,0.28
2023-01-29T08:13:59.816Z,0.40
2023-01-29T08:16:34.386Z,0.38
2023-01-29T08:19:03.975Z,0.33
2023-01-29T08:21:36.280Z,0.41
2023-01-29T08:24:04.579Z,0.41
2023-01-29T08:26:34.553Z,0.33
2023-01-29T08:29:04.629Z,0.40
2023-01-29T08:31:33.809Z,0.44
2023-01-29T08:34:03.732Z,0.48
2023-01-29T08:36:37.806Z,0.44
2023-01-29T08:39:08.056Z,0.38
2023-01-29T08:41:38.101Z,0.36
2023-01-29T08:44:06.149Z,0.34
2023-01-29T08:46:37.054Z,0.37
2023-01-29T08:49:05.223Z,0.33
2023-01-29T08:51:41.348Z,0.34
2023-01-29T08:54:09.874Z,0.34
2023-01-29T08:56:39.670Z,0.43
2023-01-29T08:59:08.495Z,0.45
2023-01-29T09:01:40.260Z,0.38
2023-01-29T09:04:10.296Z,0.44
2023-01-29T09:06:43.675Z,0.47
2023-01-29T09:09:12.078Z,0.50
2023-01-29T09:11:42.147Z,0.50
2023-01-29T09:14:12.499Z,0.51
2023-01-29T09:16:42.422Z,0.61
2023-01-29T09:19:12.088Z,0.58
2023-01-29T09:21:41.706Z,0.47
2023-01-29T09:24:13.320Z,0.54
2023-01-29T09:26:44.600Z,0.60
2023-01-29T09:29:14.272Z,0.58
2023-01-29T09:31:42.552Z,0.54
2023-01-29T09:34:12.073Z,0.68
2023-01-29T09:36:44.163Z,0.60
2023-01-29T09:39:17.383Z,0.65
2023-01-29T09:41:51.584Z,0.69
2023-01-29T09:44:28.321Z,0.60
2023-01-29T09:47:00.401Z,0.60
2023-01-29T09:49:31.711Z,0.68
2023-01-29T09:52:06.972Z,0.55
2023-01-29T09:54:55.498Z,0.65
2023-01-29T09:57:26.118Z,0.72
2023-01-29T09:59:56.245Z,0.83
2023-01-29T10:02:35.425Z,0.79
2023-01-29T10:05:15.878Z,0.91
2023-01-29T10:07:58.998Z,0.92
2023-01-29T10:10:31.777Z,0.71
2023-01-29T10:13:13.072Z,0.65
2023-01-29T10:15:51.091Z,0.62
2023-01-29T10:18:30.709Z,0.64
2023-01-29T10:21:04.684Z,0.75
2023-01-29T10:23:37.776Z,0.68
2023-01-29T10:26:09.271Z,0.65
2023-01-29T10:28:42.697Z,0.88
2023-01-29T10:31:12.807Z,1.02
2023-01-29T10:33:49.172Z,0.81
2023-01-29T10:36:29.986Z,0.97
2023-01-29T10:39:02.483Z,0.99
2023-01-29T10:41:41.391Z,0.81
2023-01-29T10:44:15.215Z,0.81
2023-01-29T10:46:55.699Z,1.07
2023-01-29T10:49:29.407Z,0.88
2023-01-29T10:52:08.659Z,0.86
2023-01-29T10:54:48.390Z,0.86
2023-01-29T10:57:24.480Z,0.88
2023-01-29T11:00:04.545Z,0.65
2023-01-29T11:02:35.162Z,0.60
2023-01-29T11:05:06.376Z,0.66
2023-01-29T11:07:34.569Z,0.74
2023-01-29T11:10:09.726Z,0.74
2023-01-29T11:12:43.933Z,0.75
2023-01-29T11:15:18.218Z,0.55
2023-01-29T11:18:01.106Z,0.53
2023-01-29T11:20:30.750Z,0.76
2023-01-29T11:23:00.424Z,0.81
2023-01-29T11:25:32.789Z,0.51
2023-01-29T11:28:02.067Z,0.75
2023-01-29T11:30:32.564Z,0.69
2023-01-29T11:33:10.085Z,0.54
2023-01-29T11:35:38.406Z,0.50
2023-01-29T11:38:09.761Z,0.54
2023-01-29T11:40:44.425Z,0.58
2023-01-29T11:43:15.141Z,0.58
2023-01-29T11:45:43.411Z,0.61
2023-01-29T11:48:15.882Z,0.71
2023-01-29T11:50:52.540Z,0.75
2023-01-29T11:53:25.056Z,0.92
2023-01-29T11:55:56.357Z,1.09
2023-01-29T11:58:29.217Z,0.82
2023-01-29T12:01:01.117Z,0.97
2023-01-29T12:03:35.596Z,1.00
2023-01-29T12:06:05.410Z,0.79
2023-01-29T12:08:36.431Z,1.12
2023-01-29T12:11:14.062Z,0.93
2023-01-29T12:13:44.186Z,0.74
2023-01-29T12:16:18.737Z,0.82
2023-01-29T12:18:52.131Z,0.65
2023-01-29T12:21:25.274Z,0.54
2023-01-29T12:23:58.427Z,0.48
2023-01-29T12:26:31.706Z,0.50
2023-01-29T12:29:09.322Z,0.48
2023-01-29T12:31:43.997Z,0.44
2023-01-29T12:34:15.248Z,0.64
2023-01-29T12:36:53.218Z,0.38
2023-01-29T12:39:22.061Z,0.66
2023-01-29T12:41:54.720Z,0.58
2023-01-29T12:44:36.045Z,0.38
2023-01-29T12:47:07.535Z,0.47
2023-01-29T12:49:39.273Z,0.45
2023-01-29T12:52:11.520Z,0.51
2023-01-29T12:54:43.492Z,0.43
2023-01-29T12:57:21.086Z,0.48
2023-01-29T12:59:54.004Z,0.41
2023-01-29T13:02:28.487Z,0.69
2023-01-29T13:04:59.060Z,0.60
2023-01-29T13:07:29.872Z,0.48
2023-01-29T13:10:03.076Z,0.58
2023-01-29T13:12:36.530Z,0.38
2023-01-29T13:15:07.288Z,0.51
2023-01-29T13:17:37.610Z,0.64
2023-01-29T13:20:13.768Z,0.69
2023-01-29T13:22:44.078Z,0.76
2023-01-29T13:25:13.846Z,0.68
2023-01-29T13:27:45.985Z,0.60
2023-01-29T13:30:25.575Z,1.04
2023-01-29T13:32:55.104Z,0.79
2023-01-29T13:35:24.356Z,0.89
2023-01-29T13:37:54.395Z,0.60
2023-01-29T13:40:24.911Z,0.51
2023-01-29T13:42:56.958Z,0.64
2023-01-29T13:45:35.562Z,0.54
2023-01-29T13:48:11.087Z,0.51
2023-01-29T13:50:40.368Z,0.36
2023-01-29T13:53:10.463Z,0.48
2023-01-29T13:55:40.724Z,0.43
2023-01-29T13:58:17.112Z,0.36
2023-01-29T14:00:54.680Z,0.16
2023-01-29T14:04:04.860Z,0.44
2023-01-29T14:06:50.841Z,0.26
2023-01-29T14:09:37.400Z,0.30
2023-01-29T14:12:26.146Z,0.07
2023-01-29T14:15:06.441Z,0.00
2023-01-29T14:17:35.276Z,0.10
2023-01-29T14:20:05.470Z,0.02
2023-01-29T14:22:36.029Z,-0.05
2023-01-29T14:25:09.185Z,-0.10
2023-01-29T14:27:38.633Z,-0.03
2023-01-29T14:30:22.069Z,-0.22
2023-01-29T14:32:53.132Z,-0.14
2023-01-29T14:35:23.430Z,-0.15
2023-01-29T14:37:57.781Z,-0.26
2023-01-29T14:40:29.780Z,-0.31
2023-01-29T14:43:01.195Z,-0.39
2023-01-29T14:45:37.800Z,-0.36
2023-01-29T14:48:20.940Z,-0.42
2023-01-29T14:50:52.310Z,-0.39
2023-01-29T14:53:26.266Z,-0.36
2023-01-29T14:56:00.877Z,-0.22
2023-01-29T14:58:39.167Z,-0.34
2023-01-29T15:01:17.467Z,-0.31
2023-01-29T15:03:50.417Z,-0.25
2023-01-29T15:06:21.325Z,-0.44
2023-01-29T15:08:53.812Z,-0.46
2023-01-29T15:11:39.776Z,-0.49
2023-01-29T15:14:16.898Z,-0.49
2023-01-29T15:16:51.770Z,-0.49
2023-01-29T15:19:24.888Z,-0.58
2023-01-29T15:22:10.062Z,-0.58
2023-01-29T15:24:40.643Z,-0.59
2023-01-29T15:27:12.092Z,-0.55
2023-01-29T15:29:41.229Z,-0.68
2023-01-29T15:32:12.273Z,-0.62
2023-01-29T15:34:51.063Z,-0.72
2023-01-29T15:37:29.179Z,-0.82
2023-01-29T15:39:58.261Z,-0.89
2023-01-29T15:42:44.032Z,-0.89
2023-01-29T15:45:39.267Z,-0.90
2023-01-29T15:48:17.395Z,-0.97
2023-01-29T15:50:47.535Z,-1.07
2023-01-29T15:53:21.781Z,-1.18
2023-01-29T15:55:51.900Z,-1.31
2023-01-29T15:58:21.993Z,-1.31
2023-01-29T16:04:02.627Z,-1.44
2023-01-29T16:06:37.637Z,-1.45
2023-01-29T16:09:07.306Z,-1.47
2023-01-29T16:11:39.557Z,-1.52
2023-01-29T16:17:29.010Z,-1.58
2023-01-29T16:20:19.851Z,-1.59
2023-01-29T16:22:53.908Z,-1.56
2023-01-29T16:25:22.791Z,-1.63
2023-01-29T16:27:52.600Z,-1.66
2023-01-29T16:30:29.078Z,-1.72
2023-01-29T16:33:08.267Z,-1.70
2023-01-29T16:35:37.017Z,-1.73
2023-01-29T16:38:22.130Z,-1.75
2023-01-29T16:41:06.508Z,-1.78
2023-01-29T16:43:58.615Z,-1.83
2023-01-29T16:46:29.034Z,-1.82
2023-01-29T16:48:57.817Z,-1.85
2023-01-29T16:51:29.004Z,-1.80
2023-01-29T16:54:02.380Z,-1.76
2023-01-29T16:56:34.281Z,-1.83
2023-01-29T16:59:09.196Z,-1.78
2023-01-29T17:01:39.475Z,-1.79
2023-01-29T17:04:13.366Z,-1.82
2023-01-29T17:06:42.667Z,-1.86
2023-01-29T17:09:20.831Z,-1.91
2023-01-29T17:11:51.388Z,-1.94
2023-01-29T17:14:20.409Z,-1.83
2023-01-29T17:16:52.619Z,-1.83
2023-01-29T17:19:25.510Z,-1.85
2023-01-29T17:21:54.450Z,-1.82
2023-01-29T17:24:25.947Z,-1.86
2023-01-29T17:26:54.865Z,-1.93
2023-01-29T17:29:31.342Z,-1.94
2023-01-29T17:32:00.271Z,-1.91
2023-01-29T17:34:30.823Z,-1.91
2023-01-29T17:37:01.806Z,-1.93
2023-01-29T17:39:32.648Z,-1.94
2023-01-29T17:42:02.571Z,-1.99
2023-01-29T17:44:31.991Z,-1.94
2023-01-29T17:47:01.114Z,-1.94
2023-01-29T17:49:32.367Z,-1.97
2023-01-29T17:52:01.036Z,-2.00
2023-01-29T17:54:30.828Z,-2.07
2023-01-29T17:57:05.690Z,-2.04
2023-01-29T17:59:35.425Z,-2.10
2023-01-29T18:02:04.911Z,-2.11
2023-01-29T18:04:33.859Z,-2.14
2023-01-29T18:07:03.014Z,-2.11
2023-01-29T18:09:32.224Z,-2.07
2023-01-29T18:12:03.749Z,-2.21
2023-01-29T18:14:33.553Z,-2.26
2023-01-29T18:17:03.851Z,-2.26
2023-01-29T18:19:33.933Z,-2.31
2023-01-29T18:22:03.132Z,-2.27
2023-01-29T18:24:34.095Z,-2.36
2023-01-29T18:27:04.082Z,-2.40
2023-01-29T18:29:32.796Z,-2.34
2023-01-29T18:32:02.127Z,-2.45
2023-01-29T18:34:33.463Z,-2.47
2023-01-29T18:37:01.687Z,-2.45
2023-01-29T18:39:30.030Z,-2.55
2023-01-29T18:42:00.400Z,-2.55
2023-01-29T18:44:30.717Z,-2.58
2023-01-29T18:47:06.553Z,-2.62
2023-01-29T18:49:46.070Z,-2.62
2023-01-29T18:52:15.299Z,-2.64
2023-01-29T18:54:43.260Z,-2.61
2023-01-29T18:58:28.308Z,-2.65
2023-01-29T19:00:15.378Z,-2.75
2023-01-29T19:02:46.709Z,-2.70
2023-01-29T19:05:22.769Z,-2.73
2023-01-29T19:07:53.476Z,-2.72
2023-01-29T19:10:25.423Z,-2.75
2023-01-29T19:13:10.373Z,-2.76
2023-01-29T19:15:42.239Z,-2.78
2023-01-29T19:18:14.743Z,-2.73
2023-01-29T19:20:43.912Z,-2.80
2023-01-29T19:23:17.870Z,-2.78
2023-01-29T19:25:46.384Z,-2.86
2023-01-29T19:28:16.962Z,-2.89
2023-01-29T19:30:46.816Z,-2.85
2023-01-29T19:33:15.776Z,-2.85
2023-01-29T19:35:46.756Z,-2.87
2023-01-29T19:38:19.330Z,-2.90
2023-01-29T19:40:47.786Z,-2.95
2023-01-29T19:43:18.502Z,-2.93
2023-01-29T19:45:51.082Z,-3.01
2023-01-29T19:48:25.833Z,-3.01
2023-01-29T19:50:54.679Z,-3.00
2023-01-29T19:53:25.008Z,-3.00
2023-01-29T19:56:01.087Z,-3.07
2023-01-29T19:58:32.215Z,-3.03
2023-01-29T20:01:03.057Z,-3.08
2023-01-29T20:03:34.675Z,-3.14
2023-01-29T20:06:04.417Z,-3.13
2023-01-29T20:08:34.723Z,-3.18
2023-01-29T20:11:03.070Z,-3.17
2023-01-29T20:13:35.223Z,-3.16
2023-01-29T20:16:07.390Z,-3.18
2023-01-29T20:18:37.265Z,-3.23
2023-01-29T20:21:17.892Z,-3.26
2023-01-29T20:23:50.030Z,-3.21
2023-01-29T20:26:20.329Z,-3.23
2023-01-29T20:28:52.017Z,-3.18
2023-01-29T20:31:27.860Z,-3.20
2023-01-29T20:33:58.924Z,-3.21
2023-01-29T20:36:28.588Z,-3.26
2023-01-29T20:38:57.704Z,-3.30
2023-01-29T20:41:29.562Z,-3.26
2023-01-29T20:43:57.771Z,-3.26
2023-01-29T20:46:28.620Z,-3.26
2023-01-29T20:49:02.844Z,-3.31
2023-01-29T20:51:34.946Z,-3.38
2023-01-29T20:54:06.258Z,-3.34
2023-01-29T20:56:44.312Z,-3.30
2023-01-29T20:59:14.302Z,-3.35
2023-01-29T21:01:44.829Z,-3.40
2023-01-29T21:04:13.184Z,-3.44
2023-01-29T21:06:43.366Z,-3.41
2023-01-29T21:09:13.228Z,-3.38
2023-01-29T21:11:45.117Z,-3.40
2023-01-29T21:14:14.204Z,-3.48
2023-01-29T21:16:43.642Z,-3.45
2023-01-29T21:19:17.489Z,-3.40
2023-01-29T21:21:46.835Z,-3.43
2023-01-29T21:24:27.815Z,-3.48
2023-01-29T21:27:00.332Z,-3.48
2023-01-29T21:29:29.575Z,-3.52
2023-01-29T21:32:00.115Z,-3.51
2023-01-29T21:34:30.573Z,-3.52
2023-01-29T21:36:58.561Z,-3.58
2023-01-29T21:39:28.477Z,-3.52
2023-01-29T21:42:15.772Z,-3.52
2023-01-29T21:44:45.247Z,-3.59
2023-01-29T21:47:16.173Z,-3.58
2023-01-29T21:49:46.701Z,-3.64
2023-01-29T21:52:18.334Z,-3.55
2023-01-29T21:54:51.640Z,-3.61
2023-01-29T21:57:26.678Z,-3.62
2023-01-29T21:59:55.514Z,-3.66
2023-01-29T22:02:24.059Z,-3.64
2023-01-29T22:05:05.298Z,-3.62
2023-01-29T22:07:46.332Z,-3.69
2023-01-29T22:10:15.137Z,-3.69
2023-01-29T22:12:44.602Z,-3.71
2023-01-29T22:15:15.254Z,-3.62
2023-01-29T22:17:44.707Z,-3.64
2023-01-29T22:20:16.434Z,-3.68
2023-01-29T22:22:45.700Z,-3.68
2023-01-29T22:25:20.019Z,-3.66
2023-01-29T22:27:49.232Z,-3.64
2023-01-29T22:30:19.863Z,-3.62
2023-01-29T22:32:51.463Z,-3.51
2023-01-29T22:38:22.789Z,-3.56
2023-01-29T22:40:53.152Z,-3.50
2023-01-29T22:43:24.195Z,-3.45
2023-01-29T22:45:53.770Z,-3.41
2023-01-29T22:48:23.339Z,-3.43
2023-01-29T22:51:10.640Z,-3.41
2023-01-29T22:53:41.549Z,-3.37
2023-01-29T22:56:12.904Z,-3.40
2023-01-29T22:58:42.228Z,-3.40
2023-01-29T23:01:12.022Z,-3.40
2023-01-29T23:03:41.478Z,-3.41
2023-01-29T23:06:13.644Z,-3.40
2023-01-29T23:08:45.343Z,-3.43
2023-01-29T23:11:15.921Z,-3.35
2023-01-29T23:13:44.348Z,-3.35
2023-01-29T23:16:20.320Z,-3.37
2023-01-29T23:18:52.293Z,-3.40
2023-01-29T23:21:23.499Z,-3.38
2023-01-29T23:23:55.381Z,-3.45
2023-01-29T23:26:41.762Z,-3.47
2023-01-29T23:29:11.096Z,-3.55
2023-01-29T23:31:40.892Z,-3.59
2023-01-29T23:34:09.687Z,-3.48
2023-01-29T23:36:41.574Z,-3.56
2023-01-29T23:39:10.434Z,-3.55
2023-01-29T23:41:38.725Z,-3.62
2023-01-29T23:44:08.770Z,-3.72
2023-01-29T23:46:37.792Z,-3.79
2023-01-29T23:49:07.541Z,-3.89
2023-01-29T23:51:37.373Z,-3.86
2023-01-29T23:54:11.245Z,-4.05
2023-01-29T23:56:39.857Z,-4.07
2023-01-29T23:59:08.281Z,-4.16
